Nearby METAR Reports

 

KMTN - Baltimore/Martin, Maryland, USA
Distance from station: SSE 8mi, 13km
Updated: Wed, 10-Feb-2016 11:55am EST
Mostly cloudy
Mostly cloudy
 Wind from W
Wind: W 18 mph , 30 km/h, Gust: 26 mph , 43 km/h
Temperature: 36°F , 2°C
Wind Chill: 26°F , -3°C
Dew Point: 21°F , -6°C
Humidity: 56%
Barometer: 29.79 inHg , 1008.8 hPa
Clouds: Mostly cloudy
Visibility: 10 miles , 16 km
Cloud details: Partly cloudy 4200 ft
Mostly cloudy 18000 ft
2016/02/10 16:55 KMTN 101655Z 26016G23KT 10SM SCT042 BKN180 02/M06 A2979
KDMH - Baltimore/Dwntwn, Maryland, USA
Distance from station: SW 12mi, 19km
Updated: Wed, 10-Feb-2016 11:54am EST

 
Temperature: 34°F , 1°C
Dew Point: 16°F , -9°C
Humidity: 48%
Barometer: 29.78 inHg , 1008.5 hPa
2016/02/10 16:54 KDMH 101654Z AUTO 01/M09 A2978 RMK AO1 SLP085 T00061089
 
KBWI - Balto/Wash Intl, Maryland, USA
Distance from station: SSW 20mi, 33km
Updated: Wed, 10-Feb-2016 11:54am EST
Mostly cloudy
Mostly cloudy
 Wind from W
Wind: W 18 mph , 30 km/h, Gust: 25 mph , 41 km/h
Temperature: 34°F , 1°C
Wind Chill: 23°F , -5°C
Dew Point: 18°F , -8°C
Humidity: 51%
Barometer: 29.79 inHg , 1008.8 hPa
Clouds: Mostly cloudy
Visibility: 10 miles , 16 km
Cloud details: Mostly cloudy 4300 ft
Mostly cloudy 10000 ft
Mostly cloudy 16000 ft
2016/02/10 16:54 KBWI 101654Z 28016G22KT 10SM BKN043 BKN100 BKN160 01/M08 A2979 RMK AO2 PK WND 27026/1556 SLP087 ACSL OHD-NW T00061078
KDMW - Carroll Cnty, Maryland, USA
Distance from station: WNW 30mi, 48km
Updated: Wed, 10-Feb-2016 12:15pm EST
Overcast
Overcast
 Wind from W
Wind: W 17 mph , 28 km/h, Gust: 24 mph , 39 km/h
Temperature: 30°F , -1°C
Wind Chill: 18°F , -8°C
Dew Point: 25°F , -4°C
Humidity: 80%
Barometer: 29.74 inHg , 1007.1 hPa
Clouds: Overcast
Visibility: 7 miles , 11 km
Cloud details: Overcast 3700 ft
2016/02/10 17:15 KDMW 101715Z AUTO 28015G21KT 7SM OVC037 M01/M04 A2974 RMK AO2
 
KNAK - Annapolis/Naval, Maryland, USA
Distance from station: S 30mi, 48km
Updated: Wed, 10-Feb-2016 11:54am EST
Mostly cloudy
Mostly cloudy
 Wind from WNW
Wind: WNW 14 mph , 22 km/h, Gust: 25 mph , 41 km/h
Temperature: 34°F , 1°C
Wind Chill: 25°F , -4°C
Dew Point: 18°F , -8°C
Humidity: 51%
Barometer: 29.79 inHg , 1008.8 hPa
Clouds: Mostly cloudy
Visibility: 10 miles , 16 km
Cloud details: Mostly cloudy 4600 ft
Mostly cloudy 10000 ft
2016/02/10 16:54 KNAK 101654Z AUTO 30012G22KT 10SM BKN046 BKN100 01/M08 A2979 RMK AO2 SLP090 T00111078
KW29 - Stevensville, Maryland, USA
Distance from station: SSE 31mi, 50km
Updated: Wed, 10-Feb-2016 12:16pm EST

 Wind from WNW
Wind: WNW 10 mph , 17 km/h
Temperature: 36°F , 2°C
Wind Chill: 29°F , -2°C
Dew Point: 19°F , -7°C
Humidity: 52%
Barometer: 29.79 inHg , 1008.8 hPa
Visibility: 10 miles , 16 km
2016/02/10 17:16 KW29 101716Z AUTO 29009KT 10SM 02/M07 A2979 RMK AO1
 
KCGS - College Park, Maryland, USA
Distance from station: SW 38mi, 61km
Updated: Wed, 10-Feb-2016 12:15pm EST
Clear
Clear
 Wind from W
Wind: W 8 mph , 13 km/h, Gust: 23 mph , 37 km/h
Temperature: 36°F , 2°C
Wind Chill: 30°F , -1°C
Dew Point: 18°F , -8°C
Humidity: 48%
Barometer: 29.78 inHg , 1008.5 hPa
Clouds: Clear
Visibility: 10 miles , 16 km
2016/02/10 17:15 KCGS 101715Z AUTO 28007G20KT 10SM CLR 02/M08 A2978 RMK AO1
KGAI - Gaithersburg, Maryland, USA
Distance from station: WSW 40mi, 65km
Updated: Wed, 10-Feb-2016 12:15pm EST
Overcast
Overcast
 Wind from WNW
Wind: WNW 16 mph , 26 km/h, Gust: 22 mph , 35 km/h
Temperature: 30°F , -1°C
Wind Chill: 19°F , -7°C
Dew Point: 16°F , -9°C
Humidity: 55%
Barometer: 29.80 inHg , 1009.1 hPa
Clouds: Overcast
Visibility: 10 miles , 16 km
Cloud details: Overcast 4000 ft
2016/02/10 17:15 KGAI 101715Z AUTO 29014G19KT 10SM OVC040 M01/M09 A2980 RMK AO1
 
KTHV - York, Pennsylvania, USA
Distance from station: NNW 40mi, 65km
Updated: Wed, 10-Feb-2016 11:53am EST
Few Clouds
Few Clouds
 Wind from W
Wind: W 12 mph , 19 km/h, Gust: 21 mph , 33 km/h
Temperature: 30°F , -1°C
Wind Chill: 20°F , -7°C
Dew Point: 16°F , -9°C
Humidity: 55%
Barometer: 29.75 inHg , 1007.5 hPa
Clouds: Few Clouds
Visibility: 10 miles , 16 km
Cloud details: Few Clouds 4300 ft
2016/02/10 16:53 KTHV 101653Z AUTO 27010G18KT 10SM FEW043 M01/M09 A2975 RMK AO2 SLP081 T10111089
KFDK - Frederick, Maryland, USA
Distance from station: W 47mi, 75km
Updated: Wed, 10-Feb-2016 11:57am EST
Mostly cloudy
Mostly cloudy
 Wind from WNW
Wind: WNW 15 mph , 24 km/h
Temperature: 32°F , 0°C
Wind Chill: 22°F , -6°C
Dew Point: 21°F , -6°C
Humidity: 64%
Barometer: 29.83 inHg , 1010.2 hPa
Clouds: Mostly cloudy
Visibility: 10 miles , 16 km
Cloud details: Mostly cloudy 3800 ft
2016/02/10 16:57 KFDK 101657Z 30013KT 10SM BKN038 00/M06 A2983
 
KESN - Easton/Newnam, Maryland, USA
Distance from station: SSE 48mi, 78km
Updated: Wed, 10-Feb-2016 11:50am EST
Mostly cloudy
Mostly cloudy
 Wind from NW
Wind: NW 9 mph , 15 km/h, Gust: 18 mph , 30 km/h
Temperature: 36°F , 2°C
Wind Chill: 29°F , -2°C
Dew Point: 21°F , -6°C
Humidity: 56%
Barometer: 29.82 inHg , 1009.8 hPa
Clouds: Mostly cloudy
Visibility: 10 miles , 16 km
Cloud details: Mostly cloudy 4000 ft
2016/02/10 16:50 KESN 101650Z 31008G16KT 10SM BKN040 02/M06 A2982
KDCA - Washington/Natl, Washington D.c., USA
Distance from station: SW 49mi, 79km
Updated: Wed, 10-Feb-2016 11:52am EST
Partly cloudy
Partly cloudy
 Wind from WNW
Wind: WNW 16 mph , 26 km/h, Gust: 22 mph , 35 km/h
Temperature: 37°F , 3°C
Wind Chill: 28°F , -2°C
Dew Point: 16°F , -9°C
Humidity: 41%
Barometer: 29.81 inHg , 1009.5 hPa
Clouds: Partly cloudy
Visibility: 10 miles , 16 km
Cloud details: Partly cloudy 5000 ft
Partly cloudy 11000 ft
Partly cloudy 14000 ft
2016/02/10 16:52 KDCA 101652Z 29014G19KT 10SM SCT050 SCT110 SCT140 03/M09 A2981 RMK AO2 SLP094 T00281089
 
KLNS - Lancaster, Pennsylvania, USA
Distance from station: N 49mi, 79km
Updated: Wed, 10-Feb-2016 11:53am EST
Partly cloudy
Partly cloudy
 Wind from W
Wind: W 16 mph , 26 km/h, Gust: 25 mph , 41 km/h
Temperature: 30°F , -1°C
Wind Chill: 19°F , -7°C
Dew Point: 19°F , -7°C
Humidity: 64%
Barometer: 29.73 inHg , 1006.8 hPa
Clouds: Partly cloudy
Visibility: 10 miles , 16 km
Cloud details: Partly cloudy 3400 ft
2016/02/10 16:53 KLNS 101653Z 27014G22KT 10SM SCT034 M01/M07 A2973 RMK AO2 SLP070 T10061072
KILG - Wilmington, Delaware, USA
Distance from station: ENE 50mi, 81km
Updated: Wed, 10-Feb-2016 11:51am EST
Few Clouds
Few Clouds
 Wind from WNW
Wind: WNW 20 mph , 31 km/h, Gust: 26 mph , 43 km/h
Temperature: 34°F , 1°C
Wind Chill: 23°F , -5°C
Dew Point: 21°F , -6°C
Humidity: 60%
Barometer: 29.75 inHg , 1007.5 hPa
Clouds: Few Clouds
Visibility: 10 miles , 16 km
Cloud details: Few Clouds 3200 ft
2016/02/10 16:51 KILG 101651Z 30017G23KT 10SM FEW032 01/M06 A2975 RMK AO2 SLP074 T00061056 $